Time;durP1;ratioP1;P1;durP2;ratioP2;P2;SDS_P1;SDS_P2;PMS_P1;PMS_P2;Temp;Humidity;BMP_temperature;BMP_pressure;BME280_temperature;BME280_humidity;BME280_pressure;Samples;Min_cycle;Max_cycle;Signal;HPM_P1;HPM_P2
2023/03/23 00:01:31;;;;;;;1999.90;999.90;;;14.50;99.90;;;;;;4917588;29;20055;-87
2023/03/23 00:03:57;;;;;;;1999.90;999.90;;;14.40;99.90;;;;;;4902220;29;20139;-87
2023/03/23 00:06:25;;;;;;;1999.90;285.67;;;14.60;99.90;;;;;;4918315;29;20054;-88
2023/03/23 00:08:56;;;;;;;1645.15;755.63;;;14.00;99.90;;;;;;4916506;29;20072;-87
2023/03/23 00:11:26;;;;;;;1877.05;343.48;;;14.50;99.90;;;;;;4917131;29;20052;-86
2023/03/23 00:13:52;;;;;;;1587.35;753.53;;;14.60;99.90;;;;;;4916355;29;20370;-88
2023/03/23 00:16:38;;;;;;;1999.90;999.90;;;14.60;99.90;;;;;;4917912;29;20104;-87
2023/03/23 00:19:05;;;;;;;1999.90;999.90;;;14.10;99.90;;;;;;4916044;29;20051;-87
2023/03/23 00:21:37;;;;;;;1999.90;766.45;;;14.60;99.90;;;;;;4917393;29;20569;-90
2023/03/23 00:24:09;;;;;;;1999.90;999.90;;;14.00;99.90;;;;;;4917941;29;20059;-89
2023/03/23 00:26:40;;;;;;;1999.90;999.90;;;14.00;99.90;;;;;;4914480;29;20063;-87
2023/03/23 00:29:21;;;;;;;1999.90;674.03;;;14.30;99.90;;;;;;4917218;29;20056;-88
2023/03/23 00:31:47;;;;;;;1999.90;999.90;;;14.50;99.90;;;;;;4917107;29;20048;-88
2023/03/23 00:34:19;;;;;;;1999.90;549.72;;;14.10;99.90;;;;;;4917795;29;20060;-89
2023/03/23 00:36:56;;;;;;;1999.90;999.90;;;14.20;99.90;;;;;;4915684;29;20052;-89
2023/03/23 00:39:24;;;;;;;1999.90;999.90;;;14.60;99.90;;;;;;4917694;29;20052;-88
2023/03/23 00:41:50;;;;;;;1999.90;999.90;;;14.10;99.90;;;;;;4916305;29;20134;-88
2023/03/23 00:44:19;;;;;;;1999.90;999.90;;;14.00;99.90;;;;;;4900801;29;20455;-88
2023/03/23 00:46:49;;;;;;;1999.90;999.90;;;14.00;99.90;;;;;;4901493;29;20051;-88
2023/03/23 00:49:17;;;;;;;1999.90;999.90;;;14.60;99.90;;;;;;4915029;29;20075;-88
2023/03/23 00:51:43;;;;;;;1999.90;999.90;;;14.40;99.90;;;;;;4917992;29;20119;-88
2023/03/23 00:54:09;;;;;;;1999.90;999.90;;;14.30;99.90;;;;;;4915868;29;20052;-88
2023/03/23 00:56:36;;;;;;;1999.90;999.90;;;14.20;99.90;;;;;;4900640;29;20048;-88
2023/03/23 00:59:02;;;;;;;1999.90;999.90;;;13.90;99.90;;;;;;4916207;29;20044;-89
2023/03/23 01:01:28;;;;;;;1999.90;999.90;;;14.40;99.90;;;;;;4918395;29;20456;-89
2023/03/23 01:04:00;;;;;;;1999.90;999.90;;;14.80;99.90;;;;;;4897538;29;20060;-87
2023/03/23 01:06:28;;;;;;;1999.90;999.90;;;14.50;99.90;;;;;;4911938;29;20501;-88
2023/03/23 01:08:54;;;;;;;1999.90;999.90;;;14.00;99.90;;;;;;4908745;29;20040;-88
2023/03/23 01:11:20;;;;;;;1999.90;999.90;;;14.50;99.90;;;;;;4913194;29;20052;-88
2023/03/23 01:13:46;;;;;;;1999.90;999.90;;;14.00;99.90;;;;;;4899877;29;20051;-90
2023/03/23 01:16:12;;;;;;;1999.90;999.90;;;14.50;99.90;;;;;;4915381;29;20477;-88
2023/03/23 01:18:39;;;;;;;1999.90;999.90;;;13.90;99.90;;;;;;4916465;29;20047;-90
2023/03/23 01:21:11;;;;;;;1999.90;999.90;;;14.30;99.90;;;;;;4913922;29;20045;-89
2023/03/23 01:23:37;;;;;;;1999.90;999.90;;;14.50;99.90;;;;;;4916713;29;20048;-89
2023/03/23 01:26:05;;;;;;;1999.90;999.90;;;14.40;99.90;;;;;;4915675;29;20060;-91
2023/03/23 01:28:30;;;;;;;;;;;14.40;99.90;;;;;;4915953;29;20427;-87
2023/03/23 01:31:01;;;;;;;1999.90;999.90;;;14.40;99.90;;;;;;4898964;29;19923;-90
2023/03/23 01:33:27;;;;;;;1999.90;999.90;;;14.40;99.90;;;;;;4916752;29;20052;-90
2023/03/23 01:35:53;;;;;;;1999.90;999.90;;;14.40;99.90;;;;;;4916211;29;20048;-91
2023/03/23 01:38:19;;;;;;;1999.90;999.90;;;13.80;99.90;;;;;;4913223;29;20319;-90
2023/03/23 01:40:44;;;;;;;1999.90;999.90;;;13.80;99.90;;;;;;4898611;29;20052;-89
2023/03/23 01:43:15;;;;;;;1999.90;999.90;;;14.30;99.90;;;;;;4916242;29;20428;-91
2023/03/23 01:45:41;;;;;;;1999.90;999.90;;;14.10;99.90;;;;;;4916350;29;20072;-91
2023/03/23 01:48:10;;;;;;;1999.90;999.90;;;13.70;99.90;;;;;;4914778;29;20073;-91
2023/03/23 01:50:49;;;;;;;1999.90;999.90;;;14.30;99.90;;;;;;4903021;29;20052;-90
2023/03/23 01:53:16;;;;;;;1999.90;999.90;;;13.70;99.90;;;;;;4913659;29;20129;-87
2023/03/23 01:55:48;;;;;;;1999.90;999.90;;;13.80;99.90;;;;;;4913087;29;23688;-87
2023/03/23 01:58:14;;;;;;;1999.90;999.90;;;13.70;99.90;;;;;;4917218;29;20055;-86
2023/03/23 02:00:42;;;;;;;1999.90;999.90;;;14.40;99.90;;;;;;4915708;29;20052;-85
2023/03/23 02:03:11;;;;;;;1999.90;999.90;;;14.00;99.90;;;;;;4915225;29;20051;-84
2023/03/23 02:05:40;;;;;;;1999.90;999.90;;;14.00;99.90;;;;;;4913703;29;20055;-83
2023/03/23 02:08:08;;;;;;;1999.90;999.90;;;14.40;99.90;;;;;;4904745;29;20106;-83
2023/03/23 02:10:35;;;;;;;;;;;14.10;99.90;;;;;;4914431;29;20048;-84
2023/03/23 02:13:03;;;;;;;1999.90;999.90;;;13.90;99.90;;;;;;4912720;29;20328;-83
2023/03/23 02:15:40;;;;;;;1999.90;999.90;;;14.10;99.90;;;;;;4921724;29;20080;-84
2023/03/23 02:18:28;;;;;;;1999.90;999.90;;;14.00;99.90;;;;;;4909390;29;20405;-83
2023/03/23 02:21:06;;;;;;;1999.90;999.90;;;14.40;99.90;;;;;;4910996;29;20414;-83
2023/03/23 02:23:55;;;;;;;1999.90;999.90;;;14.10;99.90;;;;;;4913311;29;20052;-83
2023/03/23 02:26:48;;;;;;;1999.90;999.90;;;13.80;99.90;;;;;;4913924;29;20057;-83
2023/03/23 02:29:36;;;;;;;1628.80;287.77;;;13.80;99.90;;;;;;4896748;29;20131;-83
2023/03/23 02:32:29;;;;;;;1999.90;999.90;;;14.30;99.90;;;;;;4915244;29;20516;-83
2023/03/23 02:35:05;;;;;;;1999.90;999.90;;;13.60;99.90;;;;;;4912510;29;20062;-87
2023/03/23 02:37:38;;;;;;;1999.90;999.90;;;13.70;99.90;;;;;;4898325;29;20433;-87
2023/03/23 02:40:15;;;;;;;1999.90;999.90;;;14.70;99.90;;;;;;4896983;29;20036;-87
2023/03/23 02:42:44;;;;;;;1999.90;999.90;;;13.60;99.90;;;;;;4897291;29;20059;-88
2023/03/23 02:45:12;;;;;;;1999.90;999.90;;;13.60;99.90;;;;;;4896995;29;20103;-91
2023/03/23 02:47:39;;;;;;;1999.90;999.90;;;13.70;99.90;;;;;;4915262;29;20079;-89
2023/03/23 02:50:08;;;;;;;1999.90;999.90;;;14.20;99.90;;;;;;4903971;29;20413;-89
2023/03/23 02:52:36;;;;;;;1999.90;999.90;;;13.90;99.90;;;;;;4898394;29;20253;-88
2023/03/23 02:55:03;;;;;;;1999.90;999.90;;;13.60;99.90;;;;;;4911912;29;20040;-86
2023/03/23 02:57:30;;;;;;;1999.90;999.90;;;15.10;99.90;;;;;;4913773;29;20072;-83
2023/03/23 02:59:56;;;;;;;1999.90;999.90;;;14.20;99.90;;;;;;4930079;29;20404;-83
2023/03/23 03:02:29;;;;;;;1999.90;999.90;;;14.20;99.90;;;;;;4895101;29;20056;-83
2023/03/23 03:05:16;;;;;;;1999.90;999.90;;;13.60;99.90;;;;;;4898090;29;20052;-83
2023/03/23 03:08:06;;;;;;;1999.90;999.90;;;13.80;99.90;;;;;;4913225;29;20115;-83
2023/03/23 03:10:44;;;;;;;1999.90;999.90;;;14.10;99.90;;;;;;4897854;29;20048;-83
2023/03/23 03:13:19;;;;;;;1999.90;999.90;;;14.20;99.90;;;;;;4912340;29;20127;-84
2023/03/23 03:16:01;;;;;;;1999.90;999.90;;;13.60;99.90;;;;;;4913550;29;20052;-83
2023/03/23 03:18:39;;;;;;;1999.90;999.90;;;14.20;99.90;;;;;;4914044;29;20048;-83
2023/03/23 03:21:10;;;;;;;1999.90;999.90;;;14.20;99.90;;;;;;4897734;29;20036;-84
2023/03/23 03:23:41;;;;;;;1999.90;999.90;;;13.60;99.90;;;;;;4912047;29;20564;-83
2023/03/23 03:26:09;;;;;;;1999.90;999.90;;;13.60;99.90;;;;;;4914023;29;20040;-84
2023/03/23 03:28:36;;;;;;;1999.90;999.90;;;13.50;99.90;;;;;;4899312;29;20416;-84
2023/03/23 03:31:04;;;;;;;1999.90;999.90;;;13.90;99.90;;;;;;4883371;29;20052;-83
2023/03/23 03:33:34;;;;;;;1999.90;999.90;;;13.90;99.90;;;;;;4911368;29;20100;-84
2023/03/23 03:36:08;;;;;;;1999.90;999.90;;;14.00;99.90;;;;;;4910217;29;20485;-83
2023/03/23 03:38:45;;;;;;;1999.90;999.90;;;14.00;99.90;;;;;;4884702;29;20055;-84
2023/03/23 03:41:10;;;;;;;1999.90;999.90;;;13.90;99.90;;;;;;4908822;29;20044;-83
2023/03/23 03:43:36;;;;;;;1999.90;999.90;;;14.20;99.90;;;;;;4912297;29;20058;-84
2023/03/23 03:46:02;;;;;;;1999.90;999.90;;;14.20;99.90;;;;;;4914285;29;20044;-84
2023/03/23 03:48:28;;;;;;;1999.90;999.90;;;13.60;99.90;;;;;;4915866;29;20080;-84
2023/03/23 03:50:56;;;;;;;1999.90;795.85;;;13.50;99.90;;;;;;4914492;29;20060;-89
2023/03/23 03:53:23;;;;;;;1999.90;999.90;;;14.20;99.90;;;;;;4914433;29;20088;-92
2023/03/23 03:55:49;;;;;;;1999.90;378.45;;;13.50;99.90;;;;;;4910803;29;20505;-92
2023/03/23 03:58:16;;;;;;;1999.90;999.90;;;13.80;99.90;;;;;;4914512;29;20062;-92
2023/03/23 04:00:42;;;;;;;1999.90;628.42;;;13.70;99.90;;;;;;4914943;29;20052;-92
2023/03/23 04:03:08;;;;;;;1999.90;999.90;;;13.80;99.90;;;;;;4913152;29;20380;-91
2023/03/23 04:05:37;;;;;;;1999.90;999.90;;;14.00;99.90;;;;;;4901443;29;20143;-91
2023/03/23 04:08:03;;;;;;;1999.90;999.90;;;14.10;99.90;;;;;;4929648;29;20060;-90
2023/03/23 04:10:30;;;;;;;1999.90;999.90;;;14.20;99.90;;;;;;4899251;29;20497;-92
2023/03/23 04:12:57;;;;;;;1700.00;65.20;;;13.60;99.90;;;;;;4927447;29;20052;-92
2023/03/23 04:15:23;;;;;;;1999.90;999.90;;;13.60;99.90;;;;;;4926847;29;20099;-91
2023/03/23 04:17:50;;;;;;;1803.28;804.90;;;13.50;99.90;;;;;;4913637;29;20087;-91
2023/03/23 04:20:17;;;;;;;1849.15;153.93;;;14.10;99.90;;;;;;4926793;29;20054;-91
2023/03/23 04:22:50;;;;;;;1456.82;512.85;;;13.60;99.90;;;;;;4904238;29;20052;-89
2023/03/23 04:25:22;;;;;;;1999.90;999.90;;;13.70;99.90;;;;;;4900743;29;20393;-89
2023/03/23 04:27:52;;;;;;;1999.90;999.90;;;14.10;99.90;;;;;;4915296;29;20056;-89
2023/03/23 04:30:21;;;;;;;1999.90;999.90;;;13.90;99.90;;;;;;4917406;29;20416;-89
2023/03/23 04:32:50;;;;;;;1999.90;999.90;;;13.80;99.90;;;;;;4918054;29;20051;-91
2023/03/23 04:35:17;;;;;;;1963.57;765.47;;;14.30;99.90;;;;;;4917244;29;20050;-90
2023/03/23 04:37:43;;;;;;;1999.90;999.90;;;14.10;99.90;;;;;;4900127;29;20140;-88
2023/03/23 04:40:14;;;;;;;1992.13;117.60;;;13.60;99.90;;;;;;4900619;29;20056;-89
2023/03/23 04:42:45;;;;;;;1999.90;999.90;;;14.20;99.90;;;;;;4917609;29;20047;-89
2023/03/23 04:45:12;;;;;;;1999.90;999.90;;;13.70;99.90;;;;;;4917153;29;20056;-83
2023/03/23 04:47:41;;;;;;;1999.90;999.90;;;13.80;99.90;;;;;;4899790;29;20055;-86
2023/03/23 04:50:09;;;;;;;1999.90;844.55;;;13.30;99.90;;;;;;4905289;29;20060;-85
2023/03/23 04:52:37;;;;;;;1999.90;794.42;;;13.30;99.90;;;;;;4907790;29;20055;-88
2023/03/23 04:55:05;;;;;;;1999.90;999.90;;;13.50;99.90;;;;;;4913124;29;20509;-85
2023/03/23 04:57:31;;;;;;;1999.90;433.70;;;13.40;99.90;;;;;;4909303;29;20052;-88
2023/03/23 04:59:57;;;;;;;1999.90;443.67;;;13.40;99.90;;;;;;4901475;29;20054;-87
2023/03/23 05:02:25;;;;;;;1999.90;620.92;;;13.70;99.90;;;;;;4910973;29;20040;-88
2023/03/23 05:04:50;;;;;;;1999.90;185.50;;;13.50;99.90;;;;;;4878500;29;20052;-87
2023/03/23 05:07:16;;;;;;;1999.90;999.90;;;13.50;99.90;;;;;;4877742;29;20556;-85
2023/03/23 05:09:46;;;;;;;1999.90;938.17;;;13.50;99.90;;;;;;4897203;29;20051;-86
2023/03/23 05:12:12;;;;;;;1999.90;568.72;;;13.60;99.90;;;;;;4930384;29;20048;-86
2023/03/23 05:14:40;;;;;;;1790.65;566.85;;;13.50;99.90;;;;;;4900014;29;20048;-86
2023/03/23 05:17:07;;;;;;;1999.90;353.67;;;13.70;99.90;;;;;;4898870;29;20052;-86
2023/03/23 05:19:33;;;;;;;1999.90;573.22;;;13.60;99.90;;;;;;4910604;29;20044;-87
2023/03/23 05:22:03;;;;;;;1999.90;996.08;;;13.60;99.90;;;;;;4914359;29;20040;-88
2023/03/23 05:24:32;;;;;;;1999.90;999.90;;;13.40;99.90;;;;;;4916523;29;20079;-88
2023/03/23 05:27:01;;;;;;;1962.47;342.77;;;13.40;99.90;;;;;;4913799;29;20088;-88
2023/03/23 05:29:30;;;;;;;1999.90;999.90;;;13.40;99.90;;;;;;4899727;29;20040;-87
2023/03/23 05:31:59;;;;;;;1999.90;999.90;;;13.00;99.90;;;;;;4911316;29;20071;-82
2023/03/23 05:34:26;;;;;;;1515.15;536.70;;;13.20;99.90;;;;;;4923958;29;20087;-82
2023/03/23 05:36:53;;;;;;;1999.90;999.90;;;13.00;99.90;;;;;;4918620;29;20056;-82
2023/03/23 05:39:19;;;;;;;1797.07;572.53;;;13.40;99.90;;;;;;4908927;29;20127;-81
2023/03/23 05:41:45;;;;;;;1999.90;818.65;;;13.10;99.90;;;;;;4898847;29;20103;-82
2023/03/23 05:44:13;;;;;;;1879.07;780.60;;;13.80;99.90;;;;;;4911727;29;20044;-83
2023/03/23 05:46:39;;;;;;;1999.90;258.67;;;13.10;99.90;;;;;;4916348;29;20056;-83
2023/03/23 05:49:05;;;;;;;1794.65;541.28;;;13.20;99.90;;;;;;4883081;29;20058;-82
2023/03/23 05:51:31;;;;;;;1999.90;999.90;;;13.40;99.90;;;;;;4915316;29;20448;-82
2023/03/23 05:53:57;;;;;;;1591.18;541.05;;;13.20;99.90;;;;;;4914765;29;20470;-82
2023/03/23 05:56:23;;;;;;;1999.90;848.58;;;13.60;99.90;;;;;;4909215;29;20056;-82
2023/03/23 05:58:48;;;;;;;1999.90;999.90;;;13.40;99.90;;;;;;4906247;29;20078;-84
2023/03/23 06:01:16;;;;;;;1999.90;999.90;;;13.50;99.90;;;;;;4915653;29;20147;-83
2023/03/23 06:03:41;;;;;;;1171.80;98.22;;;13.30;99.90;;;;;;4903254;29;20071;-81
2023/03/23 06:06:11;;;;;;;1999.90;999.90;;;13.50;99.90;;;;;;4913243;29;20489;-82
2023/03/23 06:08:37;;;;;;;1999.90;444.77;;;13.70;99.90;;;;;;4898381;29;20062;-82
2023/03/23 06:11:03;;;;;;;1591.30;551.72;;;13.40;99.90;;;;;;4922183;29;20083;-81
2023/03/23 06:13:29;;;;;;;1771.70;541.95;;;13.20;99.90;;;;;;4896234;29;20442;-82
2023/03/23 06:15:58;;;;;;;1579.38;537.40;;;13.20;99.90;;;;;;4907944;29;20504;-83
2023/03/23 06:18:24;;;;;;;1999.90;999.90;;;13.70;99.90;;;;;;4929201;29;20056;-82
2023/03/23 06:20:51;;;;;;;1999.90;999.90;;;13.70;99.90;;;;;;4913526;29;20048;-82
2023/03/23 06:23:17;;;;;;;1930.03;778.25;;;13.60;99.90;;;;;;4901435;29;20054;-81
2023/03/23 06:25:43;;;;;;;1554.97;544.95;;;13.20;99.90;;;;;;4913424;29;20040;-82
2023/03/23 06:28:10;;;;;;;1999.90;999.90;;;13.70;99.90;;;;;;4912276;29;20127;-82
2023/03/23 06:30:37;;;;;;;1999.90;999.90;;;13.30;99.90;;;;;;4912614;29;20055;-82
2023/03/23 06:33:05;;;;;;;1999.90;999.90;;;13.70;99.90;;;;;;4915509;29;20052;-82
2023/03/23 06:35:31;;;;;;;1804.45;770.28;;;13.20;99.90;;;;;;4898234;29;20056;-83
2023/03/23 06:38:01;;;;;;;1805.97;104.25;;;13.30;99.90;;;;;;4908249;29;20048;-83
2023/03/23 06:40:28;;;;;;;1999.90;999.90;;;13.70;99.90;;;;;;4912825;29;20476;-83
2023/03/23 06:42:54;;;;;;;1999.90;892.85;;;13.70;99.90;;;;;;4912635;29;20044;-83
2023/03/23 06:45:19;;;;;;;1999.90;999.90;;;13.50;99.90;;;;;;4914948;29;20130;-84
2023/03/23 06:47:48;;;;;;;1999.90;999.90;;;13.70;99.90;;;;;;4912001;29;20032;-84
2023/03/23 06:50:16;;;;;;;1792.05;568.90;;;13.40;99.90;;;;;;4911573;29;20078;-84
2023/03/23 06:52:45;;;;;;;;;;;13.40;99.90;;;;;;4914405;29;20058;-84
2023/03/23 06:55:11;;;;;;;1628.30;543.92;;;13.90;99.90;;;;;;4914680;29;19923;-84
2023/03/23 06:57:37;;;;;;;1999.90;493.08;;;13.60;99.90;;;;;;4909361;29;20476;-85
2023/03/23 07:00:05;;;;;;;1566.85;554.05;;;13.50;99.90;;;;;;4880518;29;20127;-87
2023/03/23 07:02:31;;;;;;;1999.90;406.75;;;13.30;99.90;;;;;;4893908;29;20401;-85
2023/03/23 07:04:57;;;;;;;1837.65;776.80;;;13.10;99.90;;;;;;4913965;29;20048;-86
2023/03/23 07:07:23;;;;;;;1999.90;845.85;;;13.30;99.90;;;;;;4917120;29;20055;-87
2023/03/23 07:09:48;;;;;;;1647.30;317.90;;;13.10;99.90;;;;;;4923311;29;20055;-87
2023/03/23 07:12:15;;;;;;;1772.22;779.80;;;15.00;99.90;;;;;;4914872;29;20102;-85
2023/03/23 07:14:41;;;;;;;1999.90;999.90;;;15.00;99.90;;;;;;4886664;29;20040;-84
2023/03/23 07:17:07;;;;;;;1616.60;116.53;;;13.30;99.90;;;;;;4888265;29;20048;-84
2023/03/23 07:19:33;;;;;;;1860.00;776.25;;;13.90;99.90;;;;;;4908341;29;20559;-84
2023/03/23 07:21:59;;;;;;;1999.90;999.90;;;13.70;99.90;;;;;;4874729;29;20044;-84
2023/03/23 07:24:26;;;;;;;1717.32;570.65;;;13.90;99.90;;;;;;4910215;29;20489;-84
2023/03/23 07:26:52;;;;;;;1761.80;771.75;;;13.70;99.90;;;;;;4908837;29;20055;-84
2023/03/23 07:29:18;;;;;;;1942.43;781.65;;;13.40;99.90;;;;;;4896991;29;20079;-85
2023/03/23 07:31:43;;;;;;;1405.75;313.52;;;13.90;99.90;;;;;;4910946;29;20130;-83
2023/03/23 07:34:09;;;;;;;1126.20;314.70;;;14.00;99.90;;;;;;4909021;29;20052;-84
2023/03/23 07:36:37;;;;;;;1999.90;999.90;;;14.10;99.90;;;;;;4895489;29;20051;-84
2023/03/23 07:39:05;;;;;;;1335.43;101.28;;;13.80;99.90;;;;;;4913501;29;20051;-84
2023/03/23 07:41:31;;;;;;;;;;;13.60;99.90;;;;;;4896672;29;20052;-83
2023/03/23 07:43:57;;;;;;;1612.55;318.13;;;13.50;99.90;;;;;;4896611;29;20292;-83
2023/03/23 07:46:23;;;;;;;1999.90;791.65;;;13.40;99.90;;;;;;4914078;29;20050;-83
2023/03/23 07:48:48;;;;;;;1171.35;87.78;;;12.70;99.90;;;;;;4898039;29;20055;-81
2023/03/23 07:51:18;;;;;;;1999.90;410.42;;;14.10;99.90;;;;;;4901291;29;20111;-83
2023/03/23 07:53:47;;;;;;;1999.90;595.80;;;14.00;99.90;;;;;;4916389;29;20561;-85
2023/03/23 07:56:14;;;;;;;1999.90;999.90;;;14.00;99.90;;;;;;4918821;29;20052;-84
2023/03/23 07:58:41;;;;;;;1678.25;519.03;;;13.60;99.90;;;;;;4916943;29;20048;-85
2023/03/23 08:01:08;;;;;;;1999.90;999.90;;;14.10;99.90;;;;;;4902495;29;20164;-84
2023/03/23 08:03:34;;;;;;;1999.90;999.90;;;14.00;99.90;;;;;;4915606;29;20326;-85
2023/03/23 08:06:00;;;;;;;1999.90;999.90;;;14.00;99.90;;;;;;4886210;29;20052;-84
2023/03/23 08:08:26;;;;;;;1999.90;999.90;;;13.60;99.90;;;;;;4916945;29;20054;-83
2023/03/23 08:10:52;;;;;;;1999.90;999.90;;;14.00;99.90;;;;;;4918437;29;20055;-83
2023/03/23 08:13:18;;;;;;;1999.90;999.90;;;13.70;99.90;;;;;;4915810;29;20056;-83
2023/03/23 08:15:44;;;;;;;1999.90;999.90;;;14.30;99.90;;;;;;4916974;29;20059;-82
2023/03/23 08:18:10;;;;;;;1999.90;999.90;;;13.80;99.90;;;;;;4918402;29;20056;-82
2023/03/23 08:20:36;;;;;;;1999.90;999.90;;;13.90;99.90;;;;;;4917938;29;20044;-81
2023/03/23 08:23:03;;;;;;;1999.90;999.90;;;14.20;99.90;;;;;;4917317;29;20106;-82
2023/03/23 08:25:33;;;;;;;1999.90;999.90;;;13.80;99.90;;;;;;4916722;29;20055;-85
2023/03/23 08:28:01;;;;;;;1999.90;536.30;;;14.30;99.90;;;;;;4916954;29;20076;-82
2023/03/23 08:30:29;;;;;;;1999.90;999.90;;;13.80;99.90;;;;;;4918686;29;20100;-82
2023/03/23 08:32:57;;;;;;;1999.90;999.90;;;14.50;99.90;;;;;;4900133;29;20063;-81
2023/03/23 08:35:23;;;;;;;1999.90;999.90;;;14.30;99.90;;;;;;4917635;29;20056;-82
2023/03/23 08:37:51;;;;;;;1999.90;999.90;;;16.20;99.90;;;;;;4917179;29;20083;-82
2023/03/23 08:40:19;;;;;;;1999.90;999.90;;;14.10;99.90;;;;;;4917726;29;20067;-82
2023/03/23 08:42:46;;;;;;;1999.90;999.90;;;13.90;99.90;;;;;;4917300;29;20052;-82
2023/03/23 08:45:16;;;;;;;1999.90;999.90;;;14.00;99.90;;;;;;4917210;29;20075;-81
2023/03/23 08:47:42;;;;;;;1999.90;999.90;;;14.00;99.90;;;;;;4915452;29;20143;-82
2023/03/23 08:50:14;;;;;;;1799.53;776.22;;;14.70;99.90;;;;;;4917070;29;20135;-82
2023/03/23 08:52:40;;;;;;;1999.90;999.90;;;14.90;99.90;;;;;;4918270;29;20142;-82
2023/03/23 08:55:08;;;;;;;1999.90;999.90;;;15.60;99.90;;;;;;4916317;29;20040;-83
2023/03/23 08:57:35;;;;;;;1999.90;999.90;;;15.30;99.90;;;;;;4897019;29;20054;-83
2023/03/23 09:00:17;;;;;;;1999.90;999.90;;;14.80;99.90;;;;;;4917757;29;20440;-83
2023/03/23 09:02:48;;;;;;;1999.90;999.90;;;14.60;99.90;;;;;;4911565;29;20044;-82
2023/03/23 09:05:18;;;;;;;1999.90;999.90;;;14.40;99.90;;;;;;4917191;29;20056;-83
2023/03/23 09:07:47;;;;;;;1999.90;999.90;;;14.50;99.90;;;;;;4916100;29;20127;-83
2023/03/23 09:10:14;;;;;;;1999.90;999.90;;;15.30;99.90;;;;;;4915363;29;20040;-81
2023/03/23 09:12:40;;;;;;;1999.90;999.90;;;14.80;99.90;;;;;;4913167;29;20055;-82
2023/03/23 09:15:08;;;;;;;1999.90;999.90;;;14.90;99.90;;;;;;4916975;29;20056;-82
2023/03/23 09:17:35;;;;;;;;;;;15.00;99.90;;;;;;4915099;29;20079;-88
2023/03/23 09:20:04;;;;;;;1999.90;999.90;;;14.50;99.90;;;;;;4911524;29;19969;-82
2023/03/23 09:22:29;;;;;;;1999.90;999.90;;;14.70;99.90;;;;;;4910565;29;20048;-82
2023/03/23 09:24:55;;;;;;;1999.90;999.90;;;14.90;99.90;;;;;;4914847;29;20100;-84
2023/03/23 09:27:21;;;;;;;1999.90;999.90;;;15.00;99.90;;;;;;4899974;29;20058;-82
2023/03/23 09:29:48;;;;;;;1999.90;999.90;;;15.00;99.90;;;;;;4917405;29;20425;-83
2023/03/23 09:32:14;;;;;;;1999.90;999.90;;;14.80;99.90;;;;;;4900664;29;20098;-82
2023/03/23 09:34:40;;;;;;;1999.90;999.90;;;14.50;99.90;;;;;;4883406;29;20048;-82
2023/03/23 09:37:06;;;;;;;1999.90;999.90;;;14.70;99.90;;;;;;4884891;29;20055;-82
2023/03/23 09:39:32;;;;;;;1999.90;999.90;;;15.20;99.90;;;;;;4900164;29;20405;-83
2023/03/23 09:42:15;;;;;;;1999.90;999.90;;;15.30;99.90;;;;;;4899624;29;20098;-83
2023/03/23 09:45:02;;;;;;;1999.90;999.90;;;15.30;99.90;;;;;;4898978;29;20568;-85
2023/03/23 09:47:51;;;;;;;1999.90;999.90;;;14.80;99.90;;;;;;4916396;29;20044;-84
2023/03/23 09:50:32;;;;;;;1999.90;999.90;;;15.20;99.90;;;;;;4915595;29;20067;-83
2023/03/23 09:53:34;;;;;;;1999.90;999.90;;;15.60;99.90;;;;;;4914912;29;20052;-83
2023/03/23 09:56:02;;;;;;;1999.90;999.90;;;15.30;99.90;;;;;;4912694;29;20052;-84
2023/03/23 09:58:37;;;;;;;1999.90;999.90;;;15.70;99.90;;;;;;4900086;29;20048;-87
2023/03/23 10:01:21;;;;;;;1999.90;999.90;;;16.60;99.90;;;;;;4899032;29;20059;-85
2023/03/23 10:03:48;;;;;;;1999.90;999.90;;;17.20;99.90;;;;;;4900198;29;20058;-86
2023/03/23 10:06:17;;;;;;;1999.90;999.90;;;17.40;99.90;;;;;;4897162;29;20520;-85
2023/03/23 10:08:57;;;;;;;1321.82;513.08;;;17.90;99.90;;;;;;4915293;29;20501;-86
2023/03/23 10:11:58;;;;;;;1999.90;999.90;;;17.00;99.90;;;;;;4914061;29;20399;-85
2023/03/23 10:14:44;;;;;;;1999.90;999.90;;;16.10;99.90;;;;;;4907699;29;20509;-84
2023/03/23 10:17:24;;;;;;;1999.90;999.90;;;16.60;99.90;;;;;;4913132;29;20476;-85
2023/03/23 10:19:58;;;;;;;1999.90;999.90;;;15.90;99.90;;;;;;4915393;29;20151;-85
2023/03/23 10:22:31;;;;;;;1999.90;999.90;;;15.40;99.90;;;;;;4915944;29;20102;-85
2023/03/23 10:25:12;;;;;;;1999.90;999.90;;;15.40;99.90;;;;;;4915645;29;20035;-84
2023/03/23 10:27:55;;;;;;;1999.90;999.90;;;15.40;99.90;;;;;;4916298;29;20058;-85
2023/03/23 10:30:29;;;;;;;1999.90;999.90;;;15.60;99.90;;;;;;4900176;29;20040;-86
2023/03/23 10:33:20;;;;;;;1999.90;999.90;;;15.70;99.90;;;;;;4896661;29;20401;-86
2023/03/23 10:35:54;;;;;;;1655.20;757.45;;;15.70;99.90;;;;;;4904930;29;20043;-87
2023/03/23 10:38:26;;;;;;;1999.90;999.90;;;15.40;99.90;;;;;;4896672;29;20493;-84
2023/03/23 10:41:19;;;;;;;1999.90;999.90;;;15.50;99.90;;;;;;4895346;29;20497;-84
2023/03/23 10:43:49;;;;;;;1999.90;999.90;;;16.00;99.90;;;;;;4894612;29;20071;-87
2023/03/23 10:46:42;;;;;;;1999.90;999.90;;;16.00;99.90;;;;;;4905999;29;20055;-84
2023/03/23 10:49:12;;;;;;;1999.90;999.90;;;16.40;99.90;;;;;;4914933;29;20489;-85
2023/03/23 10:51:44;;;;;;;1999.90;999.90;;;15.60;99.90;;;;;;4916320;29;20060;-84
2023/03/23 10:54:09;;;;;;;1999.90;999.90;;;15.70;99.90;;;;;;4916129;29;20063;-84
2023/03/23 10:56:39;;;;;;;1999.90;999.90;;;16.00;99.90;;;;;;4911803;29;20409;-85
2023/03/23 10:59:33;;;;;;;1999.90;999.90;;;16.90;99.90;;;;;;4915928;29;20143;-84
2023/03/23 11:02:03;;;;;;;1999.90;999.90;;;17.80;99.90;;;;;;4913552;29;20056;-84
2023/03/23 11:04:31;;;;;;;1999.90;999.90;;;18.40;99.90;;;;;;4916373;29;20052;-84
2023/03/23 11:07:01;;;;;;;;;;;18.00;99.90;;;;;;4914602;29;20175;-84
2023/03/23 11:09:36;;;;;;;1999.90;999.90;;;17.30;99.90;;;;;;4895918;29;19923;-84
2023/03/23 11:12:02;;;;;;;1999.90;999.90;;;17.10;99.90;;;;;;4889186;29;20052;-83
2023/03/23 11:14:32;;;;;;;1999.90;999.90;;;17.40;99.90;;;;;;4914625;29;20064;-84
2023/03/23 11:17:00;;;;;;;1999.90;999.90;;;17.70;99.90;;;;;;4914453;29;20497;-83
2023/03/23 11:19:27;;;;;;;;;;;17.20;99.90;;;;;;4916614;29;20044;-83
2023/03/23 11:22:05;;;;;;;1999.90;999.90;;;17.80;99.90;;;;;;4901802;29;19978;-83
2023/03/23 11:24:33;;;;;;;;;;;17.90;99.90;;;;;;4914618;29;20087;-83
2023/03/23 11:26:59;;;;;;;1999.90;999.90;;;18.50;99.90;;;;;;4900944;29;20317;-83
2023/03/23 11:29:28;;;;;;;1999.90;999.90;;;18.70;99.90;;;;;;4920044;29;20052;-83
2023/03/23 11:32:07;;;;;;;1999.90;999.90;;;18.30;99.90;;;;;;4908849;29;20049;-83
2023/03/23 11:34:41;;;;;;;1999.90;999.90;;;17.90;99.90;;;;;;4916714;29;20052;-82
2023/03/23 11:37:26;;;;;;;1999.90;999.90;;;18.20;99.90;;;;;;4917630;29;20421;-82
2023/03/23 11:40:06;;;;;;;1999.90;999.90;;;18.00;99.90;;;;;;4917973;29;20048;-84
2023/03/23 11:42:32;;;;;;;1999.90;999.90;;;17.30;99.90;;;;;;4899111;29;20088;-85
2023/03/23 11:45:18;;;;;;;1246.60;517.20;;;17.30;99.90;;;;;;4913788;29;20075;-85
2023/03/23 11:48:03;;;;;;;1999.90;999.90;;;16.80;99.90;;;;;;4918324;29;20048;-84
2023/03/23 11:50:39;;;;;;;1999.90;999.90;;;16.70;99.90;;;;;;4898497;29;20379;-85
2023/03/23 11:53:18;;;;;;;1999.90;999.90;;;17.10;99.90;;;;;;4900415;29;20054;-83
2023/03/23 11:55:51;;;;;;;1999.90;999.90;;;17.60;99.90;;;;;;4916880;29;20083;-85
2023/03/23 11:58:19;;;;;;;1999.90;999.90;;;18.60;99.90;;;;;;4915021;29;20044;-84
2023/03/23 12:00:56;;;;;;;1999.90;999.90;;;19.20;99.90;;;;;;4930111;29;20504;-83
2023/03/23 12:03:33;;;;;;;1999.90;999.90;;;19.60;99.90;;;;;;4916195;29;20052;-83
2023/03/23 12:06:12;;;;;;;1999.90;999.90;;;19.10;87.10;;;;;;4911786;29;20436;-84
2023/03/23 12:09:06;;;;;;;1999.90;999.90;;;18.60;99.90;;;;;;4918476;29;20040;-83
2023/03/23 12:11:53;;;;;;;1999.90;999.90;;;18.00;94.30;;;;;;4901371;29;20061;-83
2023/03/23 12:14:24;;;;;;;1999.90;999.90;;;17.30;99.90;;;;;;4918893;29;20055;-84
2023/03/23 12:17:14;;;;;;;1999.90;999.90;;;17.00;99.90;;;;;;4918059;29;20047;-83
2023/03/23 12:19:55;;;;;;;1999.90;999.90;;;16.80;99.90;;;;;;4917611;29;20047;-84